sensor_id;sensor_type;location;lat;lon;timestamp;pressure;altitude;pressure_sealevel;temperature;humidity
8320;BME280;4197;42.130;24.746;2022-12-16T00:01:40;99573.16;;;4.84;100.00
8320;BME280;4197;42.130;24.746;2022-12-16T00:04:08;99561.59;;;4.75;100.00
8320;BME280;4197;42.130;24.746;2022-12-16T00:06:36;99562.38;;;4.67;100.00
8320;BME280;4197;42.130;24.746;2022-12-16T00:09:04;99558.38;;;4.56;100.00
8320;BME280;4197;42.130;24.746;2022-12-16T00:11:32;99559.13;;;4.47;100.00
8320;BME280;4197;42.130;24.746;2022-12-16T00:14:00;99559.00;;;4.53;100.00
8320;BME280;4197;42.130;24.746;2022-12-16T00:16:30;99566.41;;;4.47;100.00
8320;BME280;4197;42.130;24.746;2022-12-16T00:18:59;99571.03;;;4.55;100.00
8320;BME280;4197;42.130;24.746;2022-12-16T00:21:27;99573.09;;;4.58;100.00
8320;BME280;4197;42.130;24.746;2022-12-16T00:23:55;99570.81;;;4.43;100.00
8320;BME280;4197;42.130;24.746;2022-12-16T00:26:24;99571.25;;;4.36;100.00
8320;BME280;4197;42.130;24.746;2022-12-16T00:28:52;99572.50;;;4.30;100.00
8320;BME280;4197;42.130;24.746;2022-12-16T00:31:20;99573.28;;;4.31;100.00
8320;BME280;4197;42.130;24.746;2022-12-16T00:33:50;99566.16;;;4.26;100.00
8320;BME280;4197;42.130;24.746;2022-12-16T00:36:18;99561.09;;;4.24;100.00
8320;BME280;4197;42.130;24.746;2022-12-16T00:38:46;99563.59;;;4.21;100.00
8320;BME280;4197;42.130;24.746;2022-12-16T00:41:14;99570.19;;;4.15;100.00
8320;BME280;4197;42.130;24.746;2022-12-16T00:43:42;99576.34;;;4.15;100.00
8320;BME280;4197;42.130;24.746;2022-12-16T00:46:10;99587.28;;;4.19;100.00
8320;BME280;4197;42.130;24.746;2022-12-16T00:48:38;99581.47;;;4.25;100.00
8320;BME280;4197;42.130;24.746;2022-12-16T00:51:08;99570.09;;;4.29;100.00
8320;BME280;4197;42.130;24.746;2022-12-16T00:53:36;99575.97;;;4.31;100.00
8320;BME280;4197;42.130;24.746;2022-12-16T00:56:05;99567.78;;;4.36;100.00
8320;BME280;4197;42.130;24.746;2022-12-16T00:58:34;99564.25;;;4.27;100.00
8320;BME280;4197;42.130;24.746;2022-12-16T01:01:03;99564.25;;;4.27;100.00
8320;BME280;4197;42.130;24.746;2022-12-16T01:03:32;99560.03;;;4.34;100.00
8320;BME280;4197;42.130;24.746;2022-12-16T01:06:01;99550.66;;;4.23;100.00
8320;BME280;4197;42.130;24.746;2022-12-16T01:08:35;99543.53;;;4.18;100.00
8320;BME280;4197;42.130;24.746;2022-12-16T01:11:04;99546.91;;;4.24;100.00
8320;BME280;4197;42.130;24.746;2022-12-16T01:13:32;99549.41;;;4.29;100.00
8320;BME280;4197;42.130;24.746;2022-12-16T01:16:01;99568.22;;;4.29;100.00
8320;BME280;4197;42.130;24.746;2022-12-16T01:18:29;99579.16;;;4.33;100.00
8320;BME280;4197;42.130;24.746;2022-12-16T01:21:01;99590.53;;;4.38;100.00
8320;BME280;4197;42.130;24.746;2022-12-16T01:23:29;99587.13;;;4.55;100.00
8320;BME280;4197;42.130;24.746;2022-12-16T01:26:01;99591.06;;;4.49;100.00
8320;BME280;4197;42.130;24.746;2022-12-16T01:28:29;99601.00;;;4.48;100.00
8320;BME280;4197;42.130;24.746;2022-12-16T01:30:59;99590.88;;;4.45;100.00
8320;BME280;4197;42.130;24.746;2022-12-16T01:33:29;99585.16;;;4.38;100.00
8320;BME280;4197;42.130;24.746;2022-12-16T01:35:59;99583.91;;;4.36;100.00
8320;BME280;4197;42.130;24.746;2022-12-16T01:38:28;99587.31;;;4.28;100.00
8320;BME280;4197;42.130;24.746;2022-12-16T01:40:56;99578.94;;;4.29;100.00
8320;BME280;4197;42.130;24.746;2022-12-16T01:43:28;99571.84;;;4.24;100.00
8320;BME280;4197;42.130;24.746;2022-12-16T01:45:59;99583.50;;;4.20;100.00
8320;BME280;4197;42.130;24.746;2022-12-16T01:48:34;99577.63;;;4.18;100.00
8320;BME280;4197;42.130;24.746;2022-12-16T01:51:10;99569.41;;;4.14;100.00
8320;BME280;4197;42.130;24.746;2022-12-16T01:53:41;99558.97;;;4.13;100.00
8320;BME280;4197;42.130;24.746;2022-12-16T01:56:11;99567.19;;;4.08;100.00
8320;BME280;4197;42.130;24.746;2022-12-16T01:58:43;99563.09;;;4.10;100.00
8320;BME280;4197;42.130;24.746;2022-12-16T02:01:13;99541.41;;;4.07;100.00
8320;BME280;4197;42.130;24.746;2022-12-16T02:03:43;99531.84;;;4.14;100.00
8320;BME280;4197;42.130;24.746;2022-12-16T02:06:11;99527.22;;;4.06;100.00
8320;BME280;4197;42.130;24.746;2022-12-16T02:08:39;99537.78;;;4.02;100.00
8320;BME280;4197;42.130;24.746;2022-12-16T02:11:20;99531.13;;;4.00;100.00
8320;BME280;4197;42.130;24.746;2022-12-16T02:14:02;99535.22;;;3.97;100.00
8320;BME280;4197;42.130;24.746;2022-12-16T02:16:39;99532.00;;;4.18;100.00
8320;BME280;4197;42.130;24.746;2022-12-16T02:19:32;99529.81;;;4.20;100.00
8320;BME280;4197;42.130;24.746;2022-12-16T02:22:14;99534.56;;;4.23;100.00
8320;BME280;4197;42.130;24.746;2022-12-16T02:27:52;99521.06;;;4.06;100.00
8320;BME280;4197;42.130;24.746;2022-12-16T02:30:48;99535.13;;;4.11;100.00
8320;BME280;4197;42.130;24.746;2022-12-16T02:33:41;99527.25;;;4.15;100.00
8320;BME280;4197;42.130;24.746;2022-12-16T02:36:16;99525.69;;;4.14;100.00
8320;BME280;4197;42.130;24.746;2022-12-16T02:38:55;99532.63;;;4.15;100.00
8320;BME280;4197;42.130;24.746;2022-12-16T02:41:32;99532.75;;;4.10;100.00
8320;BME280;4197;42.130;24.746;2022-12-16T02:44:05;99540.59;;;3.97;100.00
8320;BME280;4197;42.130;24.746;2022-12-16T02:46:40;99544.63;;;3.86;100.00
8320;BME280;4197;42.130;24.746;2022-12-16T02:49:40;99543.34;;;3.84;100.00
8320;BME280;4197;42.130;24.746;2022-12-16T02:52:10;99546.25;;;3.96;100.00
8320;BME280;4197;42.130;24.746;2022-12-16T02:54:39;99539.25;;;3.86;100.00
8320;BME280;4197;42.130;24.746;2022-12-16T02:57:18;99534.16;;;3.76;100.00
8320;BME280;4197;42.130;24.746;2022-12-16T02:59:59;99538.22;;;3.73;100.00
8320;BME280;4197;42.130;24.746;2022-12-16T03:02:35;99524.94;;;3.68;100.00
8320;BME280;4197;42.130;24.746;2022-12-16T03:05:09;99521.34;;;3.73;100.00
8320;BME280;4197;42.130;24.746;2022-12-16T03:07:41;99517.16;;;3.80;100.00
8320;BME280;4197;42.130;24.746;2022-12-16T03:10:13;99514.09;;;3.73;100.00
8320;BME280;4197;42.130;24.746;2022-12-16T03:12:42;99526.09;;;3.76;100.00
8320;BME280;4197;42.130;24.746;2022-12-16T03:15:13;99526.88;;;3.76;100.00
8320;BME280;4197;42.130;24.746;2022-12-16T03:17:45;99533.28;;;3.89;100.00
8320;BME280;4197;42.130;24.746;2022-12-16T03:20:17;99537.13;;;3.97;100.00
8320;BME280;4197;42.130;24.746;2022-12-16T03:22:47;99539.41;;;4.12;100.00
8320;BME280;4197;42.130;24.746;2022-12-16T03:25:20;99533.50;;;4.01;100.00
8320;BME280;4197;42.130;24.746;2022-12-16T03:27:54;99530.16;;;3.96;100.00
8320;BME280;4197;42.130;24.746;2022-12-16T03:30:27;99543.72;;;3.91;100.00
8320;BME280;4197;42.130;24.746;2022-12-16T03:33:02;99545.78;;;3.94;100.00
8320;BME280;4197;42.130;24.746;2022-12-16T03:35:36;99546.66;;;4.12;100.00
8320;BME280;4197;42.130;24.746;2022-12-16T03:38:08;99553.94;;;4.11;100.00
8320;BME280;4197;42.130;24.746;2022-12-16T03:40:40;99554.34;;;4.05;100.00
8320;BME280;4197;42.130;24.746;2022-12-16T03:43:10;99561.59;;;4.04;100.00
8320;BME280;4197;42.130;24.746;2022-12-16T03:45:43;99561.81;;;4.08;100.00
8320;BME280;4197;42.130;24.746;2022-12-16T03:48:13;99565.16;;;4.13;100.00
8320;BME280;4197;42.130;24.746;2022-12-16T03:50:43;99581.25;;;4.13;100.00
8320;BME280;4197;42.130;24.746;2022-12-16T03:53:11;99579.66;;;4.12;100.00
8320;BME280;4197;42.130;24.746;2022-12-16T03:55:39;99586.34;;;4.23;100.00
8320;BME280;4197;42.130;24.746;2022-12-16T03:58:07;99580.72;;;4.34;100.00
8320;BME280;4197;42.130;24.746;2022-12-16T04:00:35;99579.34;;;4.14;100.00
8320;BME280;4197;42.130;24.746;2022-12-16T04:03:04;99576.53;;;4.19;100.00
8320;BME280;4197;42.130;24.746;2022-12-16T04:05:33;99559.41;;;4.06;100.00
8320;BME280;4197;42.130;24.746;2022-12-16T04:08:02;99559.72;;;4.05;100.00
8320;BME280;4197;42.130;24.746;2022-12-16T04:10:30;99552.03;;;4.12;100.00
8320;BME280;4197;42.130;24.746;2022-12-16T04:13:15;99559.03;;;4.21;100.00
8320;BME280;4197;42.130;24.746;2022-12-16T04:16:02;99544.81;;;4.21;100.00
8320;BME280;4197;42.130;24.746;2022-12-16T04:18:47;99563.41;;;4.17;100.00
8320;BME280;4197;42.130;24.746;2022-12-16T04:21:35;99552.03;;;4.12;100.00
8320;BME280;4197;42.130;24.746;2022-12-16T04:24:24;99548.72;;;4.15;100.00
8320;BME280;4197;42.130;24.746;2022-12-16T04:26:55;99567.38;;;4.20;100.00
8320;BME280;4197;42.130;24.746;2022-12-16T04:29:41;99569.06;;;4.38;100.00
8320;BME280;4197;42.130;24.746;2022-12-16T04:32:24;99573.06;;;4.50;100.00
8320;BME280;4197;42.130;24.746;2022-12-16T04:34:52;99565.75;;;4.41;100.00
8320;BME280;4197;42.130;24.746;2022-12-16T04:37:20;99558.19;;;4.43;100.00
8320;BME280;4197;42.130;24.746;2022-12-16T04:40:07;99567.44;;;4.29;100.00
8320;BME280;4197;42.130;24.746;2022-12-16T04:42:52;99575.47;;;4.29;100.00
8320;BME280;4197;42.130;24.746;2022-12-16T04:45:38;99566.69;;;4.37;100.00
8320;BME280;4197;42.130;24.746;2022-12-16T04:48:23;99583.94;;;4.44;100.00
8320;BME280;4197;42.130;24.746;2022-12-16T04:51:09;99586.88;;;4.34;100.00
8320;BME280;4197;42.130;24.746;2022-12-16T04:53:56;99569.50;;;4.32;100.00
8320;BME280;4197;42.130;24.746;2022-12-16T04:56:41;99592.63;;;4.50;100.00
8320;BME280;4197;42.130;24.746;2022-12-16T04:59:27;99595.31;;;4.50;100.00
8320;BME280;4197;42.130;24.746;2022-12-16T05:02:12;99587.56;;;4.48;100.00
8320;BME280;4197;42.130;24.746;2022-12-16T05:04:59;99579.97;;;4.42;100.00
8320;BME280;4197;42.130;24.746;2022-12-16T05:07:44;99568.34;;;4.55;100.00
8320;BME280;4197;42.130;24.746;2022-12-16T05:10:45;99581.94;;;4.67;100.00
8320;BME280;4197;42.130;24.746;2022-12-16T05:13:30;99583.88;;;4.76;100.00
8320;BME280;4197;42.130;24.746;2022-12-16T05:16:15;99581.34;;;4.79;100.00
8320;BME280;4197;42.130;24.746;2022-12-16T05:19:15;99578.03;;;4.74;100.00
8320;BME280;4197;42.130;24.746;2022-12-16T05:22:01;99575.97;;;4.70;100.00
8320;BME280;4197;42.130;24.746;2022-12-16T05:24:46;99562.25;;;4.81;100.00
8320;BME280;4197;42.130;24.746;2022-12-16T05:27:33;99568.28;;;4.86;100.00
8320;BME280;4197;42.130;24.746;2022-12-16T05:30:19;99561.94;;;4.82;100.00
8320;BME280;4197;42.130;24.746;2022-12-16T05:33:04;99570.94;;;4.78;100.00
8320;BME280;4197;42.130;24.746;2022-12-16T05:35:49;99572.69;;;4.82;100.00
8320;BME280;4197;42.130;24.746;2022-12-16T05:38:34;99567.75;;;4.76;100.00
8320;BME280;4197;42.130;24.746;2022-12-16T05:41:20;99587.53;;;4.80;100.00
8320;BME280;4197;42.130;24.746;2022-12-16T05:44:07;99599.56;;;4.82;100.00
8320;BME280;4197;42.130;24.746;2022-12-16T05:46:53;99592.94;;;4.88;100.00
8320;BME280;4197;42.130;24.746;2022-12-16T05:49:39;99577.84;;;4.70;100.00
8320;BME280;4197;42.130;24.746;2022-12-16T05:52:25;99590.78;;;4.59;100.00
8320;BME280;4197;42.130;24.746;2022-12-16T05:55:10;99573.88;;;4.59;100.00
8320;BME280;4197;42.130;24.746;2022-12-16T05:58:00;99573.47;;;4.74;100.00
8320;BME280;4197;42.130;24.746;2022-12-16T06:00:47;99574.91;;;4.80;100.00
8320;BME280;4197;42.130;24.746;2022-12-16T06:03:32;99587.75;;;5.01;100.00
8320;BME280;4197;42.130;24.746;2022-12-16T06:06:23;99595.78;;;4.92;100.00
8320;BME280;4197;42.130;24.746;2022-12-16T06:09:05;99615.59;;;5.05;100.00
8320;BME280;4197;42.130;24.746;2022-12-16T06:11:51;99613.06;;;5.17;100.00
8320;BME280;4197;42.130;24.746;2022-12-16T06:14:36;99622.72;;;5.18;100.00
8320;BME280;4197;42.130;24.746;2022-12-16T06:17:23;99620.53;;;5.29;100.00
8320;BME280;4197;42.130;24.746;2022-12-16T06:20:09;99627.97;;;5.32;100.00
8320;BME280;4197;42.130;24.746;2022-12-16T06:22:55;99628.78;;;5.41;100.00
8320;BME280;4197;42.130;24.746;2022-12-16T06:25:41;99619.44;;;5.47;100.00
8320;BME280;4197;42.130;24.746;2022-12-16T06:28:27;99631.97;;;5.52;100.00
8320;BME280;4197;42.130;24.746;2022-12-16T06:31:12;99645.91;;;5.63;100.00
8320;BME280;4197;42.130;24.746;2022-12-16T06:34:11;99658.38;;;5.67;100.00
8320;BME280;4197;42.130;24.746;2022-12-16T06:36:56;99660.91;;;5.64;100.00
8320;BME280;4197;42.130;24.746;2022-12-16T06:39:41;99666.78;;;5.74;100.00
8320;BME280;4197;42.130;24.746;2022-12-16T06:42:27;99660.78;;;5.69;100.00
8320;BME280;4197;42.130;24.746;2022-12-16T06:45:13;99674.03;;;5.65;100.00
8320;BME280;4197;42.130;24.746;2022-12-16T06:48:00;99661.69;;;5.47;100.00
8320;BME280;4197;42.130;24.746;2022-12-16T06:50:47;99655.69;;;5.50;100.00
8320;BME280;4197;42.130;24.746;2022-12-16T06:53:33;99662.97;;;5.41;100.00
8320;BME280;4197;42.130;24.746;2022-12-16T06:56:18;99660.13;;;5.54;100.00
8320;BME280;4197;42.130;24.746;2022-12-16T06:59:04;99655.38;;;5.77;100.00
8320;BME280;4197;42.130;24.746;2022-12-16T07:01:49;99666.16;;;5.69;100.00
8320;BME280;4197;42.130;24.746;2022-12-16T07:04:49;99668.34;;;5.84;100.00
8320;BME280;4197;42.130;24.746;2022-12-16T07:07:36;99682.16;;;5.82;100.00
8320;BME280;4197;42.130;24.746;2022-12-16T07:10:21;99676.75;;;5.91;100.00
8320;BME280;4197;42.130;24.746;2022-12-16T07:13:07;99685.16;;;5.81;100.00
8320;BME280;4197;42.130;24.746;2022-12-16T07:15:52;99695.78;;;6.03;100.00
8320;BME280;4197;42.130;24.746;2022-12-16T07:18:38;99704.81;;;6.16;100.00
8320;BME280;4197;42.130;24.746;2022-12-16T07:21:23;99702.28;;;6.11;100.00
8320;BME280;4197;42.130;24.746;2022-12-16T07:24:10;99695.13;;;6.07;100.00
8320;BME280;4197;42.130;24.746;2022-12-16T07:26:56;99700.69;;;6.10;100.00
8320;BME280;4197;42.130;24.746;2022-12-16T07:29:41;99714.31;;;6.22;100.00
8320;BME280;4197;42.130;24.746;2022-12-16T07:32:27;99720.78;;;6.39;100.00
8320;BME280;4197;42.130;24.746;2022-12-16T07:35:12;99734.13;;;6.35;100.00
8320;BME280;4197;42.130;24.746;2022-12-16T07:37:58;99730.31;;;6.36;100.00
8320;BME280;4197;42.130;24.746;2022-12-16T07:40:46;99727.94;;;6.35;100.00
8320;BME280;4197;42.130;24.746;2022-12-16T07:43:32;99720.78;;;6.39;100.00
8320;BME280;4197;42.130;24.746;2022-12-16T07:46:17;99727.44;;;6.41;100.00
8320;BME280;4197;42.130;24.746;2022-12-16T07:49:03;99719.22;;;6.46;100.00
8320;BME280;4197;42.130;24.746;2022-12-16T07:51:49;99723.16;;;6.49;100.00
8320;BME280;4197;42.130;24.746;2022-12-16T07:54:34;99725.69;;;6.54;100.00
8320;BME280;4197;42.130;24.746;2022-12-16T07:57:22;99725.53;;;6.51;100.00
8320;BME280;4197;42.130;24.746;2022-12-16T08:00:09;99715.09;;;6.49;100.00
8320;BME280;4197;42.130;24.746;2022-12-16T08:02:54;99727.59;;;6.62;100.00
8320;BME280;4197;42.130;24.746;2022-12-16T08:05:48;99721.34;;;6.70;100.00
8320;BME280;4197;42.130;24.746;2022-12-16T08:08:34;99708.84;;;6.75;100.00
8320;BME280;4197;42.130;24.746;2022-12-16T08:11:19;99696.19;;;6.66;100.00
8320;BME280;4197;42.130;24.746;2022-12-16T08:14:06;99699.94;;;6.83;100.00
8320;BME280;4197;42.130;24.746;2022-12-16T08:16:52;99699.94;;;6.83;100.00
8320;BME280;4197;42.130;24.746;2022-12-16T08:19:37;99703.38;;;6.92;100.00
8320;BME280;4197;42.130;24.746;2022-12-16T08:22:23;99703.03;;;7.02;100.00
8320;BME280;4197;42.130;24.746;2022-12-16T08:25:09;99703.53;;;6.96;100.00
8320;BME280;4197;42.130;24.746;2022-12-16T08:27:54;99706.81;;;7.10;100.00
8320;BME280;4197;42.130;24.746;2022-12-16T08:30:41;99710.25;;;7.19;100.00
8320;BME280;4197;42.130;24.746;2022-12-16T08:33:27;99695.84;;;7.15;100.00
8320;BME280;4197;42.130;24.746;2022-12-16T08:36:12;99684.84;;;7.20;100.00
8320;BME280;4197;42.130;24.746;2022-12-16T08:38:57;99670.47;;;7.16;100.00
8320;BME280;4197;42.130;24.746;2022-12-16T08:41:43;99676.13;;;7.23;100.00
8320;BME280;4197;42.130;24.746;2022-12-16T08:44:34;99674.06;;;7.50;100.00
8320;BME280;4197;42.130;24.746;2022-12-16T08:47:21;99693.06;;;8.04;100.00
8320;BME280;4197;42.130;24.746;2022-12-16T08:50:07;99694.03;;;7.99;100.00
8320;BME280;4197;42.130;24.746;2022-12-16T08:52:55;99677.69;;;7.75;100.00
8320;BME280;4197;42.130;24.746;2022-12-16T08:55:41;99682.38;;;7.66;100.00
8320;BME280;4197;42.130;24.746;2022-12-16T08:58:26;99688.44;;;7.83;100.00
8320;BME280;4197;42.130;24.746;2022-12-16T09:01:23;99671.91;;;7.85;100.00
8320;BME280;4197;42.130;24.746;2022-12-16T09:04:10;99655.59;;;7.81;100.00
8320;BME280;4197;42.130;24.746;2022-12-16T09:06:56;99650.91;;;7.91;100.00
8320;BME280;4197;42.130;24.746;2022-12-16T09:09:42;99648.81;;;8.09;100.00
8320;BME280;4197;42.130;24.746;2022-12-16T09:12:27;99648.09;;;8.20;100.00
8320;BME280;4197;42.130;24.746;2022-12-16T09:15:13;99648.59;;;8.35;100.00
8320;BME280;4197;42.130;24.746;2022-12-16T09:17:59;99642.78;;;8.45;100.00
8320;BME280;4197;42.130;24.746;2022-12-16T09:20:45;99645.84;;;8.56;100.00
8320;BME280;4197;42.130;24.746;2022-12-16T09:23:31;99649.25;;;8.65;100.00
8320;BME280;4197;42.130;24.746;2022-12-16T09:26:18;99628.97;;;8.83;100.00
8320;BME280;4197;42.130;24.746;2022-12-16T09:29:04;99621.34;;;8.73;100.00
8320;BME280;4197;42.130;24.746;2022-12-16T09:31:50;99614.56;;;8.79;100.00
8320;BME280;4197;42.130;24.746;2022-12-16T09:34:35;99615.00;;;8.69;100.00
8320;BME280;4197;42.130;24.746;2022-12-16T09:37:22;99621.97;;;8.70;100.00
8320;BME280;4197;42.130;24.746;2022-12-16T09:40:10;99620.31;;;8.65;100.00
8320;BME280;4197;42.130;24.746;2022-12-16T09:43:02;99610.50;;;8.73;100.00
8320;BME280;4197;42.130;24.746;2022-12-16T09:45:58;99604.28;;;8.73;100.00
8320;BME280;4197;42.130;24.746;2022-12-16T09:48:50;99610.84;;;8.84;100.00
8320;BME280;4197;42.130;24.746;2022-12-16T09:51:38;99608.91;;;8.72;100.00
8320;BME280;4197;42.130;24.746;2022-12-16T09:54:27;99606.34;;;8.88;100.00
8320;BME280;4197;42.130;24.746;2022-12-16T09:57:14;99609.59;;;8.93;100.00
8320;BME280;4197;42.130;24.746;2022-12-16T10:00:20;99608.91;;;9.21;100.00
8320;BME280;4197;42.130;24.746;2022-12-16T10:03:14;99597.66;;;9.07;100.00
8320;BME280;4197;42.130;24.746;2022-12-16T10:06:04;99599.78;;;9.13;100.00
8320;BME280;4197;42.130;24.746;2022-12-16T10:08:56;99592.69;;;9.09;100.00
8320;BME280;4197;42.130;24.746;2022-12-16T10:11:50;99581.94;;;9.25;100.00
8320;BME280;4197;42.130;24.746;2022-12-16T10:14:43;99593.31;;;9.30;100.00
8320;BME280;4197;42.130;24.746;2022-12-16T10:17:30;99593.31;;;9.30;100.00
8320;BME280;4197;42.130;24.746;2022-12-16T10:20:26;99595.25;;;9.30;100.00
8320;BME280;4197;42.130;24.746;2022-12-16T10:23:19;99583.00;;;9.20;100.00
8320;BME280;4197;42.130;24.746;2022-12-16T10:26:13;99571.34;;;9.20;100.00
8320;BME280;4197;42.130;24.746;2022-12-16T10:29:06;99585.69;;;9.20;100.00
8320;BME280;4197;42.130;24.746;2022-12-16T10:31:56;99580.13;;;9.41;100.00
8320;BME280;4197;42.130;24.746;2022-12-16T10:34:42;99564.72;;;9.17;100.00
8320;BME280;4197;42.130;24.746;2022-12-16T10:37:32;99555.78;;;9.29;100.00
8320;BME280;4197;42.130;24.746;2022-12-16T10:40:20;99564.41;;;9.59;100.00
8320;BME280;4197;42.130;24.746;2022-12-16T10:43:12;99565.88;;;9.56;100.00
8320;BME280;4197;42.130;24.746;2022-12-16T10:46:06;99575.16;;;9.43;100.00
8320;BME280;4197;42.130;24.746;2022-12-16T10:48:56;99570.34;;;9.24;100.00
8320;BME280;4197;42.130;24.746;2022-12-16T10:51:41;99580.78;;;9.38;100.00
8320;BME280;4197;42.130;24.746;2022-12-16T10:54:38;99571.16;;;9.53;100.00
8320;BME280;4197;42.130;24.746;2022-12-16T10:57:31;99580.41;;;9.52;100.00
8320;BME280;4197;42.130;24.746;2022-12-16T11:00:39;99563.97;;;9.45;100.00
8320;BME280;4197;42.130;24.746;2022-12-16T11:03:28;99567.03;;;9.43;100.00
8320;BME280;4197;42.130;24.746;2022-12-16T11:06:18;99572.63;;;9.50;100.00
8320;BME280;4197;42.130;24.746;2022-12-16T11:09:17;99581.56;;;9.51;100.00
8320;BME280;4197;42.130;24.746;2022-12-16T11:12:23;99583.59;;;9.42;100.00
8320;BME280;4197;42.130;24.746;2022-12-16T11:15:20;99588.78;;;9.47;100.00
8320;BME280;4197;42.130;24.746;2022-12-16T11:18:10;99596.19;;;9.62;100.00
8320;BME280;4197;42.130;24.746;2022-12-16T11:21:11;99589.13;;;9.45;100.00
8320;BME280;4197;42.130;24.746;2022-12-16T11:24:13;99575.25;;;9.47;100.00
8320;BME280;4197;42.130;24.746;2022-12-16T11:27:03;99579.94;;;9.62;100.00
8320;BME280;4197;42.130;24.746;2022-12-16T11:29:54;99583.06;;;9.64;100.00
8320;BME280;4197;42.130;24.746;2022-12-16T11:32:44;99587.84;;;9.55;100.00
8320;BME280;4197;42.130;24.746;2022-12-16T11:35:32;99587.09;;;9.42;100.00
8320;BME280;4197;42.130;24.746;2022-12-16T11:38:24;99582.53;;;9.18;100.00
8320;BME280;4197;42.130;24.746;2022-12-16T11:41:23;99574.75;;;9.16;100.00
8320;BME280;4197;42.130;24.746;2022-12-16T11:44:17;99562.88;;;9.33;100.00
8320;BME280;4197;42.130;24.746;2022-12-16T11:47:10;99566.28;;;9.58;100.00
8320;BME280;4197;42.130;24.746;2022-12-16T11:49:58;99560.09;;;9.58;100.00
8320;BME280;4197;42.130;24.746;2022-12-16T11:52:51;99560.34;;;9.53;100.00
8320;BME280;4197;42.130;24.746;2022-12-16T11:55:43;99559.31;;;9.57;100.00
8320;BME280;4197;42.130;24.746;2022-12-16T11:58:45;99547.63;;;9.69;100.00
8320;BME280;4197;42.130;24.746;2022-12-16T12:01:34;99548.88;;;9.72;100.00
8320;BME280;4197;42.130;24.746;2022-12-16T12:04:24;99556.84;;;9.80;100.00
8320;BME280;4197;42.130;24.746;2022-12-16T12:07:20;99553.06;;;9.69;100.00
8320;BME280;4197;42.130;24.746;2022-12-16T12:13:41;99553.03;;;9.41;100.00
8320;BME280;4197;42.130;24.746;2022-12-16T12:16:39;99556.50;;;9.54;100.00
8320;BME280;4197;42.130;24.746;2022-12-16T12:19:33;99558.72;;;10.08;100.00
8320;BME280;4197;42.130;24.746;2022-12-16T12:22:32;99566.16;;;9.95;100.00
8320;BME280;4197;42.130;24.746;2022-12-16T12:25:23;99571.03;;;9.90;100.00
8320;BME280;4197;42.130;24.746;2022-12-16T12:28:45;99561.63;;;9.71;100.00
8320;BME280;4197;42.130;24.746;2022-12-16T12:31:41;99558.69;;;9.76;100.00
8320;BME280;4197;42.130;24.746;2022-12-16T12:34:37;99564.47;;;9.91;100.00
8320;BME280;4197;42.130;24.746;2022-12-16T12:37:28;99566.16;;;9.95;100.00
8320;BME280;4197;42.130;24.746;2022-12-16T12:40:28;99572.25;;;9.92;100.00
8320;BME280;4197;42.130;24.746;2022-12-16T12:46:33;99563.09;;;9.97;100.00
8320;BME280;4197;42.130;24.746;2022-12-16T12:49:26;99556.34;;;9.91;100.00
8320;BME280;4197;42.130;24.746;2022-12-16T12:52:21;99550.59;;;9.92;100.00
8320;BME280;4197;42.130;24.746;2022-12-16T12:55:18;99550.31;;;9.97;100.00
8320;BME280;4197;42.130;24.746;2022-12-16T12:58:05;99556.59;;;9.86;100.00
8320;BME280;4197;42.130;24.746;2022-12-16T13:00:54;99551.09;;;9.82;100.00
8320;BME280;4197;42.130;24.746;2022-12-16T13:03:47;99562.06;;;10.01;100.00
8320;BME280;4197;42.130;24.746;2022-12-16T13:06:35;99549.03;;;10.07;100.00
8320;BME280;4197;42.130;24.746;2022-12-16T13:09:25;99558.59;;;9.89;100.00
8320;BME280;4197;42.130;24.746;2022-12-16T13:12:21;99553.56;;;9.87;100.00
8320;BME280;4197;42.130;24.746;2022-12-16T13:15:10;99553.91;;;10.01;100.00
8320;BME280;4197;42.130;24.746;2022-12-16T13:18:20;99561.81;;;10.07;100.00
8320;BME280;4197;42.130;24.746;2022-12-16T13:24:43;99565.09;;;10.00;100.00
8320;BME280;4197;42.130;24.746;2022-12-16T13:27:45;99562.53;;;9.91;100.00
8320;BME280;4197;42.130;24.746;2022-12-16T13:30:34;99571.81;;;9.90;100.00
8320;BME280;4197;42.130;24.746;2022-12-16T13:33:25;99587.84;;;9.83;100.00
8320;BME280;4197;42.130;24.746;2022-12-16T13:36:16;99576.94;;;9.79;100.00
8320;BME280;4197;42.130;24.746;2022-12-16T13:39:20;99582.25;;;9.76;100.00
8320;BME280;4197;42.130;24.746;2022-12-16T13:45:34;99602.63;;;9.86;100.00
8320;BME280;4197;42.130;24.746;2022-12-16T13:48:47;99583.34;;;9.87;100.00
8320;BME280;4197;42.130;24.746;2022-12-16T13:52:01;99592.34;;;9.63;100.00
8320;BME280;4197;42.130;24.746;2022-12-16T13:54:57;99597.34;;;9.49;100.00
8320;BME280;4197;42.130;24.746;2022-12-16T13:57:53;99593.47;;;9.62;100.00
8320;BME280;4197;42.130;24.746;2022-12-16T14:00:54;99597.53;;;9.68;100.00
8320;BME280;4197;42.130;24.746;2022-12-16T14:03:43;99582.75;;;9.66;100.00
8320;BME280;4197;42.130;24.746;2022-12-16T14:06:31;99587.69;;;9.76;100.00
8320;BME280;4197;42.130;24.746;2022-12-16T14:09:23;99576.16;;;9.51;100.00
8320;BME280;4197;42.130;24.746;2022-12-16T14:12:19;99570.84;;;9.42;100.00
8320;BME280;4197;42.130;24.746;2022-12-16T14:15:17;99583.19;;;9.40;100.00
8320;BME280;4197;42.130;24.746;2022-12-16T14:18:13;99579.78;;;9.43;100.00
8320;BME280;4197;42.130;24.746;2022-12-16T14:21:12;99584.06;;;9.44;100.00
8320;BME280;4197;42.130;24.746;2022-12-16T14:24:06;99586.81;;;9.31;100.00
8320;BME280;4197;42.130;24.746;2022-12-16T14:26:54;99593.78;;;9.32;100.00
8320;BME280;4197;42.130;24.746;2022-12-16T14:29:42;99592.53;;;9.30;100.00
8320;BME280;4197;42.130;24.746;2022-12-16T14:32:30;99588.28;;;9.16;100.00
8320;BME280;4197;42.130;24.746;2022-12-16T14:35:19;99592.94;;;9.04;100.00
8320;BME280;4197;42.130;24.746;2022-12-16T14:38:20;99584.00;;;9.03;100.00
8320;BME280;4197;42.130;24.746;2022-12-16T14:41:10;99598.00;;;9.18;100.00
8320;BME280;4197;42.130;24.746;2022-12-16T14:43:56;99589.06;;;9.29;100.00
8320;BME280;4197;42.130;24.746;2022-12-16T14:46:42;99591.91;;;9.08;100.00
8320;BME280;4197;42.130;24.746;2022-12-16T14:49:28;99604.63;;;9.08;100.00
8320;BME280;4197;42.130;24.746;2022-12-16T14:52:19;99602.72;;;8.96;100.00
8320;BME280;4197;42.130;24.746;2022-12-16T14:55:13;99605.09;;;8.85;100.00
8320;BME280;4197;42.130;24.746;2022-12-16T14:58:13;99612.28;;;9.06;100.00